Shin-oh Maru — JG5594 — position and weather

sailwx.info

Track history (hours):
 
Tides and Currents Weather Stations Pressure Air Temp Water Temp Dewpoint Dewpoint Depression Visibility Wind Speed Wind Dir Waves Ship Positions

Shin-oh Maru

Last reported at 2017-May-26 19:00 UTC. Time now 2017-May-28 12:28 UTC.
Position N 35°04' E 140°24'.

Length 161 m; draft 6.8 m.

Type: Cargo ship. MMSI: 431100859.

Date/timePositionNaut miles runAvg speedWind from/ knotsBaromVisibWave heightAir tempDewpointWater temp
2017-May-26 19:00N 35°04' E 140°24'2119.4
2017-May-26 17:56N 34°54' E 140°02'1118.2
2017-May-26 17:19N 34°51' E 139°49'718.8
2017-May-26 16:58N 34°56' E 139°44'919.3
2017-May-26 16:30N 35°05' E 139°44'917.9
2017-May-26 16:00N 35°14' E 139°46'611.3
2017-May-26 15:30N 35°19' E 139°43'510.6
2017-May-26 15:00N 35°24' E 139°43'1312.8
2017-May-26 14:00N 35°37' E 139°46'1 1.6
2017-May-26 13:30N 35°38' E 139°46'0 0.0
2017-May-26 12:59N 35°38' E 139°46'0 0.0
2017-May-26 12:26N 35°38' E 139°46'0 0.0
2017-May-26 11:59N 35°38' E 139°46'0 0.0
2017-May-26 11:29N 35°38' E 139°46'0 0.0
2017-May-26 10:59N 35°38' E 139°46'0 0.0
2017-May-26 10:26N 35°38' E 139°46'0 0.0
2017-May-26 09:59N 35°38' E 139°46'0 0.0
2017-May-26 09:26N 35°38' E 139°46'0 0.0
2017-May-26 08:59N 35°38' E 139°46'0 0.0
2017-May-26 08:30N 35°38' E 139°46'1 1.9
2017-May-26 08:00N 35°37' E 139°46'611.5
2017-May-26 07:30N 35°33' E 139°51'816.5
2017-May-26 07:00N 35°25' E 139°47'612.8
2017-May-26 06:31N 35°19' E 139°44'611.8
2017-May-26 06:00N 35°14' E 139°47'816.3
2017-May-26 05:30N 35°06' E 139°45'1019.2
2017-May-26 05:00N 34°56' E 139°42'  
2017-May-23 17:50N 34°53' E 140°03'920.3
2017-May-23 17:24N 34°50' E 139°53'718.0
2017-May-23 17:00N 34°54' E 139°45'1019.8
2017-May-23 16:30N 35°03' E 139°43'1019.3
2017-May-23 16:00N 35°13' E 139°46'611.9
2017-May-23 15:30N 35°18' E 139°44'714.0
2017-May-23 15:01N 35°25' E 139°44'816.7
2017-May-23 14:31N 35°32' E 139°51'7 7.1
2017-May-23 13:30N 35°38' E 139°46'0 0.0
2017-May-23 13:00N 35°38' E 139°46'0 0.0
2017-May-23 12:30N 35°38' E 139°46'0 0.0
2017-May-23 12:00N 35°38' E 139°46'0 0.0
2017-May-23 11:30N 35°38' E 139°46'0 0.0
2017-May-23 11:00N 35°38' E 139°46'0 0.0
2017-May-23 10:30N 35°38' E 139°46'0 0.0
2017-May-23 10:00N 35°38' E 139°46'0 0.0
2017-May-23 09:30N 35°38' E 139°46'0 0.0
2017-May-23 08:57N 35°38' E 139°46'0 0.2
2017-May-23 08:30N 35°38' E 139°46'4 8.7
2017-May-23 08:00N 35°34' E 139°49'510.7
2017-May-23 07:30N 35°29' E 139°52'816.9
2017-May-23 07:00N 35°23' E 139°46'611.2
2017-May-23 06:30N 35°17' E 139°45'612.4
2017-May-23 06:00N 35°11' E 139°47'1019.2
2017-May-23 05:30N 35°02' E 139°45'  
2017-May-20 23:28N 36°30' E 141°05'10019.1
2017-May-20 18:13N 34°58' E 140°15'520.6
2017-May-20 17:58N 34°56' E 140°10'1020.2
2017-May-20 17:30N 34°51' E 139°59'1019.9
2017-May-20 17:01N 34°52' E 139°48'1519.6
2017-May-20 16:16N 35°06' E 139°43'519.6
2017-May-20 16:00N 35°11' E 139°45'613.1
2017-May-20 15:31N 35°17' E 139°45'714.0
2017-May-20 15:00N 35°24' E 139°42'918.2
2017-May-20 14:31N 35°30' E 139°51'9 8.9
2017-May-20 13:30N 35°38' E 139°46'0 0.0
2017-May-20 12:57N 35°38' E 139°46'0 0.0
2017-May-20 12:30N 35°38' E 139°46'0 0.0
2017-May-20 12:00N 35°38' E 139°46'0 0.0
2017-May-20 11:30N 35°38' E 139°46'0 0.0
2017-May-20 11:00N 35°38' E 139°46'0 0.0
2017-May-20 10:30N 35°38' E 139°46'0 0.0
2017-May-20 10:00N 35°38' E 139°46'0 0.0
2017-May-20 09:30N 35°38' E 139°46'0 0.0
2017-May-20 09:00N 35°38' E 139°46'1 1.4
2017-May-20 08:30N 35°37' E 139°46'713.1
2017-May-20 08:01N 35°33' E 139°52'917.2
2017-May-20 07:30N 35°25' E 139°47'612.8
2017-May-20 07:01N 35°19' E 139°44'611.9
2017-May-20 06:30N 35°13' E 139°47'612.1
2017-May-20 06:00N 35°07' E 139°46'1317.2
2017-May-20 05:16N 34°55' E 139°45'  
2017-May-17 16:02N 35°10' E 139°45'020.1
2017-May-17 16:00N 35°10' E 139°45'713.5
2017-May-17 15:31N 35°17' E 139°45'714.0
2017-May-17 15:00N 35°24' E 139°42'1312.8
2017-May-17 14:00N 35°36' E 139°47'2 3.8
2017-May-17 13:30N 35°38' E 139°46'0 0.0
2017-May-17 12:54N 35°38' E 139°46'0 0.0
2017-May-17 12:30N 35°38' E 139°46'0 0.0
2017-May-17 12:00N 35°38' E 139°46'0 0.0
2017-May-17 11:30N 35°38' E 139°46'0 0.0
2017-May-17 11:00N 35°38' E 139°46'0 0.0
2017-May-17 10:30N 35°38' E 139°46'0 0.0
2017-May-17 10:00N 35°38' E 139°46'0 0.0
2017-May-17 09:27N 35°38' E 139°46'0 0.0
2017-May-17 08:57N 35°38' E 139°46'0 0.0
2017-May-17 08:31N 35°38' E 139°46'2 3.6
2017-May-17 08:00N 35°36' E 139°47'714.6
2017-May-17 07:30N 35°30' E 139°52'816.6
2017-May-17 07:00N 35°24' E 139°46'611.0
2017-May-17 06:30N 35°18' E 139°44'611.9
2017-May-17 06:00N 35°13' E 139°47'  
Track history (hours):
 
Tides and Currents Weather Stations Pressure Air Temp Water Temp Dewpoint Dewpoint Depression Visibility Wind Speed Wind Dir Waves Ship Positions

Shin-oh Maru

Last reported at 2017-May-26 19:00 UTC. Time now 2017-May-28 12:28 UTC.
Position N 35°04' E 140°24'.

Length 161 m; draft 6.8 m.

Type: Cargo ship. MMSI: 431100859.

Date/timePositionNaut miles runAvg speedWind from/ knotsBaromVisibWave heightAir tempDewpointWater temp
2017-May-26 19:00N 35°04' E 140°24'2119.4
2017-May-26 17:56N 34°54' E 140°02'1118.2
2017-May-26 17:19N 34°51' E 139°49'718.8
2017-May-26 16:58N 34°56' E 139°44'919.3
2017-May-26 16:30N 35°05' E 139°44'917.9
2017-May-26 16:00N 35°14' E 139°46'611.3
2017-May-26 15:30N 35°19' E 139°43'510.6
2017-May-26 15:00N 35°24' E 139°43'1312.8
2017-May-26 14:00N 35°37' E 139°46'1 1.6
2017-May-26 13:30N 35°38' E 139°46'0 0.0
2017-May-26 12:59N 35°38' E 139°46'0 0.0
2017-May-26 12:26N 35°38' E 139°46'0 0.0
2017-May-26 11:59N 35°38' E 139°46'0 0.0
2017-May-26 11:29N 35°38' E 139°46'0 0.0
2017-May-26 10:59N 35°38' E 139°46'0 0.0
2017-May-26 10:26N 35°38' E 139°46'0 0.0
2017-May-26 09:59N 35°38' E 139°46'0 0.0
2017-May-26 09:26N 35°38' E 139°46'0 0.0
2017-May-26 08:59N 35°38' E 139°46'0 0.0
2017-May-26 08:30N 35°38' E 139°46'1 1.9
2017-May-26 08:00N 35°37' E 139°46'611.5
2017-May-26 07:30N 35°33' E 139°51'816.5
2017-May-26 07:00N 35°25' E 139°47'612.8
2017-May-26 06:31N 35°19' E 139°44'611.8
2017-May-26 06:00N 35°14' E 139°47'816.3
2017-May-26 05:30N 35°06' E 139°45'1019.2
2017-May-26 05:00N 34°56' E 139°42'  
2017-May-23 17:50N 34°53' E 140°03'920.3
2017-May-23 17:24N 34°50' E 139°53'718.0
2017-May-23 17:00N 34°54' E 139°45'1019.8
2017-May-23 16:30N 35°03' E 139°43'1019.3
2017-May-23 16:00N 35°13' E 139°46'611.9
2017-May-23 15:30N 35°18' E 139°44'714.0
2017-May-23 15:01N 35°25' E 139°44'816.7
2017-May-23 14:31N 35°32' E 139°51'7 7.1
2017-May-23 13:30N 35°38' E 139°46'0 0.0
2017-May-23 13:00N 35°38' E 139°46'0 0.0
2017-May-23 12:30N 35°38' E 139°46'0 0.0
2017-May-23 12:00N 35°38' E 139°46'0 0.0
2017-May-23 11:30N 35°38' E 139°46'0 0.0
2017-May-23 11:00N 35°38' E 139°46'0 0.0
2017-May-23 10:30N 35°38' E 139°46'0 0.0
2017-May-23 10:00N 35°38' E 139°46'0 0.0
2017-May-23 09:30N 35°38' E 139°46'0 0.0
2017-May-23 08:57N 35°38' E 139°46'0 0.2
2017-May-23 08:30N 35°38' E 139°46'4 8.7
2017-May-23 08:00N 35°34' E 139°49'510.7
2017-May-23 07:30N 35°29' E 139°52'816.9
2017-May-23 07:00N 35°23' E 139°46'611.2
2017-May-23 06:30N 35°17' E 139°45'612.4
2017-May-23 06:00N 35°11' E 139°47'1019.2
2017-May-23 05:30N 35°02' E 139°45'  
2017-May-20 23:28N 36°30' E 141°05'10019.1
2017-May-20 18:13N 34°58' E 140°15'520.6
2017-May-20 17:58N 34°56' E 140°10'1020.2
2017-May-20 17:30N 34°51' E 139°59'1019.9
2017-May-20 17:01N 34°52' E 139°48'1519.6
2017-May-20 16:16N 35°06' E 139°43'519.6
2017-May-20 16:00N 35°11' E 139°45'613.1
2017-May-20 15:31N 35°17' E 139°45'714.0
2017-May-20 15:00N 35°24' E 139°42'918.2
2017-May-20 14:31N 35°30' E 139°51'9 8.9
2017-May-20 13:30N 35°38' E 139°46'0 0.0
2017-May-20 12:57N 35°38' E 139°46'0 0.0
2017-May-20 12:30N 35°38' E 139°46'0 0.0
2017-May-20 12:00N 35°38' E 139°46'0 0.0
2017-May-20 11:30N 35°38' E 139°46'0 0.0
2017-May-20 11:00N 35°38' E 139°46'0 0.0
2017-May-20 10:30N 35°38' E 139°46'0 0.0
2017-May-20 10:00N 35°38' E 139°46'0 0.0
2017-May-20 09:30N 35°38' E 139°46'0 0.0
2017-May-20 09:00N 35°38' E 139°46'1 1.4
2017-May-20 08:30N 35°37' E 139°46'713.1
2017-May-20 08:01N 35°33' E 139°52'917.2
2017-May-20 07:30N 35°25' E 139°47'612.8
2017-May-20 07:01N 35°19' E 139°44'611.9
2017-May-20 06:30N 35°13' E 139°47'612.1
2017-May-20 06:00N 35°07' E 139°46'1317.2
2017-May-20 05:16N 34°55' E 139°45'  
2017-May-17 16:02N 35°10' E 139°45'020.1
2017-May-17 16:00N 35°10' E 139°45'713.5
2017-May-17 15:31N 35°17' E 139°45'714.0
2017-May-17 15:00N 35°24' E 139°42'1312.8
2017-May-17 14:00N 35°36' E 139°47'2 3.8
2017-May-17 13:30N 35°38' E 139°46'0 0.0
2017-May-17 12:54N 35°38' E 139°46'0 0.0
2017-May-17 12:30N 35°38' E 139°46'0 0.0
2017-May-17 12:00N 35°38' E 139°46'0 0.0
2017-May-17 11:30N 35°38' E 139°46'0 0.0
2017-May-17 11:00N 35°38' E 139°46'0 0.0
2017-May-17 10:30N 35°38' E 139°46'0 0.0
2017-May-17 10:00N 35°38' E 139°46'0 0.0
2017-May-17 09:27N 35°38' E 139°46'0 0.0
2017-May-17 08:57N 35°38' E 139°46'0 0.0
2017-May-17 08:31N 35°38' E 139°46'2 3.6
2017-May-17 08:00N 35°36' E 139°47'714.6
2017-May-17 07:30N 35°30' E 139°52'816.6
2017-May-17 07:00N 35°24' E 139°46'611.0
2017-May-17 06:30N 35°18' E 139°44'611.9
2017-May-17 06:00N 35°13' E 139°47'  

Dump ship's entire track history